South Pass City, Wyoming
Current Conditions -  °F | °C
As of 3:55 PM on Saturday 25 Oct 2014 (Local Time) from KFWZ Reporting Station
Clear Clear  
Wind Chill: 61°   Ceiling: Unl
Heat Index: 61°   Visibility: 10mi
Dew Point: 14°   Wind: 13mph
Humidity: 16%   Direction: 230°SW
Pressure: 30.13"   Gusts: NA
Location:  42.6143°N, 108.586°W
Report Text: KFWZ 252155Z AUTO 23011KT 190V250 10SM CLR 16/M10 A3013 RMK AO2
Loading
Personal Weather Stations






























Interactive Weather Map
Tropical Storm Tracking
New forecast layout! Learn more

10-Day Weather Forecast

Advertisements
Track Severe Weather on mobile